Washington, District of Columbia
Current Conditions -  °F | °C
As of 9:27 AM on Monday 26 Jan 2015 (Local Time) from KDCA Reporting Station
Overcast Overcast  
Wind Chill: 29°   Ceiling: 900
Heat Index: 37°   Visibility: 9mi
Dew Point: 30°   Wind: 13mph
Humidity: 75%   Direction: 60°ENE
Pressure: 29.8"   Gusts: NA
Location:  38.89°N, 77.03°W
Report Text: KDCA 261427Z 06011KT 9SM OVC009 03/M01 A2980 RMK AO2 SNE27 P0000
Loading
Personal Weather Stations






























Interactive Weather Map New forecast layout! Learn more

10-Day Weather Forecast

Advertisements
Track Severe Weather on mobile